Time;durP1;ratioP1;P1;durP2;ratioP2;P2;SDS_P1;SDS_P2;PMS_P1;PMS_P2;Temp;Humidity;BMP_temperature;BMP_pressure;BME280_temperature;BME280_humidity;BME280_pressure;Samples;Min_cycle;Max_cycle;Signal;HPM_P1;HPM_P2
2023/07/30 00:01:36;;;;;;;5.32;1.95;;;14.60;99.90;;;;;;5025983;28;20198;-85
2023/07/30 00:04:05;;;;;;;4.20;2.28;;;14.70;99.90;;;;;;5042216;28;20196;-85
2023/07/30 00:06:33;;;;;;;3.90;1.60;;;14.30;99.90;;;;;;5026854;28;20190;-85
2023/07/30 00:09:00;;;;;;;4.28;1.83;;;14.10;99.90;;;;;;5026918;28;20244;-85
2023/07/30 00:11:28;;;;;;;6.78;2.40;;;14.50;99.90;;;;;;5025634;28;20587;-84
2023/07/30 00:13:56;;;;;;;5.15;2.17;;;14.40;99.90;;;;;;5027108;28;20226;-84
2023/07/30 00:16:26;;;;;;;3.65;1.60;;;14.40;99.90;;;;;;5024831;28;20237;-84
2023/07/30 00:18:53;;;;;;;5.03;2.00;;;14.40;99.90;;;;;;5026926;28;20234;-84
2023/07/30 00:21:21;;;;;;;3.45;1.80;;;14.50;99.90;;;;;;5025365;28;20247;-85
2023/07/30 00:23:49;;;;;;;3.47;1.73;;;14.40;99.90;;;;;;5026887;28;20194;-84
2023/07/30 00:26:17;;;;;;;7.25;2.00;;;14.40;99.90;;;;;;5022518;28;20201;-84
2023/07/30 00:28:44;;;;;;;8.68;2.00;;;14.60;99.90;;;;;;5026632;28;20186;-84
2023/07/30 00:31:12;;;;;;;2.38;1.67;;;14.30;99.90;;;;;;5008710;28;20656;-85
2023/07/30 00:33:40;;;;;;;8.90;2.20;;;14.30;99.90;;;;;;5025528;28;20186;-84
2023/07/30 00:36:07;;;;;;;4.03;1.95;;;14.50;99.90;;;;;;5034656;28;20231;-85
2023/07/30 00:38:35;;;;;;;3.67;1.80;;;14.60;99.90;;;;;;5026810;28;20190;-84
2023/07/30 00:41:03;;;;;;;4.15;1.77;;;14.50;99.90;;;;;;5031879;28;20679;-84
2023/07/30 00:43:30;;;;;;;4.10;2.00;;;14.50;99.90;;;;;;5025255;28;20562;-84
2023/07/30 00:45:58;;;;;;;5.15;1.92;;;14.40;99.90;;;;;;5026469;28;20198;-84
2023/07/30 00:48:26;;;;;;;6.75;1.92;;;14.40;99.90;;;;;;5024182;28;20235;-83
2023/07/30 00:50:55;;;;;;;2.80;1.90;;;14.40;99.90;;;;;;5025357;28;20194;-83
2023/07/30 00:53:26;;;;;;;3.42;1.92;;;14.40;99.90;;;;;;5035545;28;20222;-84
2023/07/30 00:55:54;;;;;;;6.60;2.47;;;14.20;99.90;;;;;;5021478;28;20673;-84
2023/07/30 00:58:23;;;;;;;3.50;1.88;;;14.30;99.90;;;;;;5024250;28;20231;-84
2023/07/30 01:00:54;;;;;;;6.05;2.15;;;14.30;99.90;;;;;;5022558;28;20213;-84
2023/07/30 01:03:22;;;;;;;9.38;2.30;;;14.00;99.90;;;;;;5025331;28;20194;-84
2023/07/30 01:05:50;;;;;;;4.72;1.85;;;13.80;99.90;;;;;;5024820;28;20188;-85
2023/07/30 01:08:18;;;;;;;5.15;2.03;;;13.90;99.90;;;;;;5035174;28;20217;-84
2023/07/30 01:10:46;;;;;;;6.63;2.10;;;14.00;99.90;;;;;;5024297;28;20204;-84
2023/07/30 01:13:15;;;;;;;6.03;2.25;;;14.10;99.90;;;;;;5025700;27;20660;-84
2023/07/30 01:15:44;;;;;;;4.97;2.17;;;14.00;99.90;;;;;;5021828;28;20202;-84
2023/07/30 01:18:12;;;;;;;7.50;2.20;;;13.70;99.90;;;;;;5016585;28;20210;-84
2023/07/30 01:20:40;;;;;;;5.85;2.00;;;13.50;99.90;;;;;;5026160;28;20197;-84
2023/07/30 01:23:07;;;;;;;5.13;2.38;;;13.60;99.90;;;;;;5033945;28;20695;-84
2023/07/30 01:25:37;;;;;;;8.50;3.63;;;13.80;99.90;;;;;;5024535;28;20604;-84
2023/07/30 01:28:08;;;;;;;10.82;2.50;;;13.90;99.90;;;;;;5024378;28;20197;-84
2023/07/30 01:30:41;;;;;;;15.82;2.72;;;13.60;99.90;;;;;;5023403;28;20190;-85
2023/07/30 01:33:11;;;;;;;6.43;2.40;;;13.50;99.90;;;;;;5030325;28;20196;-84
2023/07/30 01:35:41;;;;;;;3.92;1.92;;;13.50;99.90;;;;;;5024541;28;20192;-84
2023/07/30 01:38:10;;;;;;;7.20;2.20;;;13.40;99.90;;;;;;5021085;28;20267;-84
2023/07/30 01:40:37;;;;;;;7.00;2.10;;;13.40;99.90;;;;;;5019052;28;20193;-84
2023/07/30 01:43:07;;;;;;;6.68;2.40;;;13.40;99.90;;;;;;5040874;28;20194;-84
2023/07/30 01:45:34;;;;;;;6.30;2.40;;;13.50;99.90;;;;;;5024285;28;20835;-84
2023/07/30 01:48:02;;;;;;;7.82;2.97;;;13.40;99.90;;;;;;5020766;28;20198;-84
2023/07/30 01:50:30;;;;;;;4.47;2.05;;;13.30;99.90;;;;;;5022165;28;20190;-84
2023/07/30 01:52:58;;;;;;;4.70;2.00;;;13.40;99.90;;;;;;5024093;28;20226;-84
2023/07/30 01:55:25;;;;;;;6.55;2.35;;;13.60;99.90;;;;;;5025255;28;20197;-84
2023/07/30 01:57:53;;;;;;;3.25;2.05;;;13.30;99.90;;;;;;5024091;28;20220;-83
2023/07/30 02:00:21;;;;;;;5.78;2.42;;;13.20;99.90;;;;;;5024408;28;20226;-85
2023/07/30 02:02:48;;;;;;;3.47;2.17;;;13.20;99.90;;;;;;5023622;28;20193;-84
2023/07/30 02:05:16;;;;;;;4.40;2.40;;;13.30;99.90;;;;;;5045318;28;20190;-85
2023/07/30 02:07:44;;;;;;;8.88;2.80;;;13.50;99.90;;;;;;5020793;28;20281;-85
2023/07/30 02:10:12;;;;;;;8.00;2.38;;;13.30;99.90;;;;;;5021219;28;20204;-86
2023/07/30 02:12:40;;;;;;;5.43;2.50;;;13.00;99.90;;;;;;5007507;28;20210;-85
2023/07/30 02:15:08;;;;;;;9.80;2.40;;;13.10;99.90;;;;;;5024078;28;20194;-84
2023/07/30 02:17:36;;;;;;;8.00;2.33;;;13.20;99.90;;;;;;5007895;28;20719;-84
2023/07/30 02:20:04;;;;;;;2.92;1.92;;;13.00;99.90;;;;;;5021256;28;20198;-84
2023/07/30 02:22:32;;;;;;;5.82;1.95;;;13.20;99.90;;;;;;5024361;28;20205;-84
2023/07/30 02:25:00;;;;;;;4.30;2.38;;;13.30;99.90;;;;;;5026681;28;20717;-85
2023/07/30 02:27:27;;;;;;;5.28;2.53;;;13.20;99.90;;;;;;5032386;28;20228;-84
2023/07/30 02:29:55;;;;;;;4.95;2.30;;;13.00;99.90;;;;;;5028648;28;20190;-85
2023/07/30 02:32:23;;;;;;;9.55;2.85;;;13.00;99.90;;;;;;5027257;28;20190;-84
2023/07/30 02:34:51;;;;;;;4.38;2.08;;;13.10;99.90;;;;;;5028479;28;20694;-84
2023/07/30 02:37:18;;;;;;;4.63;2.10;;;13.30;99.90;;;;;;5010624;28;20210;-84
2023/07/30 02:39:46;;;;;;;8.25;2.20;;;13.30;99.90;;;;;;5023814;28;20681;-84
2023/07/30 02:42:14;;;;;;;4.45;1.98;;;13.00;99.90;;;;;;5015125;28;20591;-84
2023/07/30 02:44:41;;;;;;;6.97;2.20;;;13.20;99.90;;;;;;5028903;28;20230;-85
2023/07/30 02:47:09;;;;;;;6.60;2.30;;;13.40;99.90;;;;;;5024002;28;20203;-84
2023/07/30 02:49:38;;;;;;;4.43;2.38;;;13.10;99.90;;;;;;5010802;28;20639;-85
2023/07/30 02:52:06;;;;;;;4.75;2.35;;;13.20;99.90;;;;;;5034701;28;20189;-84
2023/07/30 02:54:34;;;;;;;4.20;2.13;;;13.30;99.90;;;;;;5028577;28;20196;-84
2023/07/30 02:57:01;;;;;;;5.55;2.58;;;13.30;99.90;;;;;;5032838;28;20217;-84
2023/07/30 02:59:29;;;;;;;3.83;2.40;;;13.30;99.90;;;;;;5026307;28;20190;-84
2023/07/30 03:01:57;;;;;;;3.80;2.28;;;13.20;99.90;;;;;;5008190;28;20183;-84
2023/07/30 03:04:25;;;;;;;6.28;2.25;;;13.20;99.90;;;;;;5010470;28;20208;-85
2023/07/30 03:06:53;;;;;;;7.53;2.55;;;13.20;99.90;;;;;;5082994;27;20296;-84
2023/07/30 03:09:20;;;;;;;4.07;2.03;;;13.30;99.90;;;;;;5029010;28;20243;-84
2023/07/30 03:11:51;;;;;;;3.28;2.28;;;13.30;99.90;;;;;;5032465;28;20213;-84
2023/07/30 03:14:20;;;;;;;6.10;2.67;;;13.00;99.90;;;;;;5042885;28;20198;-84
2023/07/30 03:16:48;;;;;;;7.20;2.35;;;12.90;99.90;;;;;;5026491;28;20185;-84
2023/07/30 03:19:16;;;;;;;7.18;2.78;;;12.70;99.90;;;;;;5035507;28;20194;-85
2023/07/30 03:21:44;;;;;;;7.78;2.65;;;12.80;99.90;;;;;;5024470;28;20201;-84
2023/07/30 03:24:12;;;;;;;8.07;3.05;;;12.60;99.90;;;;;;5042898;28;20267;-84
2023/07/30 03:26:39;;;;;;;3.20;1.98;;;12.60;99.90;;;;;;5008096;28;20682;-84
2023/07/30 03:29:07;;;;;;;9.02;2.47;;;12.90;99.90;;;;;;5026490;28;20209;-84
2023/07/30 03:31:35;;;;;;;5.70;2.17;;;13.00;99.90;;;;;;5018821;28;20681;-84
2023/07/30 03:34:03;;;;;;;5.40;2.17;;;13.20;99.90;;;;;;5021202;28;20186;-83
2023/07/30 03:36:31;;;;;;;7.97;3.00;;;13.20;99.90;;;;;;5027569;28;20193;-83
2023/07/30 03:38:59;;;;;;;6.65;2.40;;;13.20;99.90;;;;;;5020190;28;20839;-84
2023/07/30 03:41:26;;;;;;;4.65;2.70;;;13.20;99.90;;;;;;5006955;28;20194;-84
2023/07/30 03:43:54;;;;;;;4.50;2.33;;;13.20;99.90;;;;;;5023347;28;20219;-84
2023/07/30 03:46:22;;;;;;;7.57;2.60;;;13.20;99.90;;;;;;5021858;28;20208;-84
2023/07/30 03:48:50;;;;;;;7.72;2.63;;;13.20;99.90;;;;;;5023020;28;20197;-84
2023/07/30 03:51:17;;;;;;;7.93;3.15;;;13.00;99.90;;;;;;5025991;28;20192;-84
2023/07/30 03:53:45;;;;;;;7.88;3.33;;;12.70;99.90;;;;;;5027257;28;20695;-84
2023/07/30 03:56:13;;;;;;;3.58;2.17;;;12.70;99.90;;;;;;5022513;28;20191;-84
2023/07/30 03:58:41;;;;;;;6.30;2.70;;;12.90;99.90;;;;;;5024973;28;20730;-84
2023/07/30 04:01:09;;;;;;;6.80;2.63;;;13.10;99.90;;;;;;5027288;28;20186;-85
2023/07/30 04:03:37;;;;;;;5.88;2.47;;;13.20;99.90;;;;;;5032835;28;20195;-84
2023/07/30 04:06:05;;;;;;;5.15;3.35;;;13.30;99.90;;;;;;5027326;28;20175;-84
2023/07/30 04:08:33;;;;;;;8.43;3.63;;;13.40;99.90;;;;;;5027009;28;20182;-85
2023/07/30 04:11:00;;;;;;;7.63;4.00;;;13.30;99.90;;;;;;5025586;28;20205;-84
2023/07/30 04:13:29;;;;;;;5.80;3.10;;;13.10;99.90;;;;;;5026142;27;20198;-84
2023/07/30 04:15:56;;;;;;;4.90;3.10;;;13.30;99.90;;;;;;5027221;27;20617;-85
2023/07/30 04:18:24;;;;;;;6.55;3.83;;;13.40;99.90;;;;;;5025453;28;20210;-85
2023/07/30 04:20:55;;;;;;;7.78;3.85;;;13.50;99.90;;;;;;5021379;28;20201;-84
2023/07/30 04:23:24;;;;;;;9.95;3.50;;;13.50;99.90;;;;;;5025718;28;20186;-84
2023/07/30 04:25:52;;;;;;;7.72;4.25;;;13.60;99.90;;;;;;5027042;28;20186;-84
2023/07/30 04:28:20;;;;;;;7.20;4.10;;;13.70;99.90;;;;;;5037949;27;20353;-84
2023/07/30 04:30:48;;;;;;;6.53;4.07;;;13.70;99.90;;;;;;5061427;27;20306;-83
2023/07/30 04:33:17;;;;;;;7.60;4.50;;;13.70;99.90;;;;;;5026669;28;20198;-84
2023/07/30 04:35:45;;;;;;;8.00;4.28;;;13.70;99.90;;;;;;5008451;28;20194;-84
2023/07/30 04:38:13;;;;;;;8.05;4.70;;;13.80;99.90;;;;;;5022737;28;20302;-84
2023/07/30 04:40:41;;;;;;;8.00;4.55;;;13.80;99.90;;;;;;5029617;28;20194;-84
2023/07/30 04:43:09;;;;;;;7.07;4.30;;;13.80;99.90;;;;;;5005500;28;20195;-84
2023/07/30 04:45:37;;;;;;;6.20;4.40;;;13.90;99.90;;;;;;5001823;28;20765;-84
2023/07/30 04:48:05;;;;;;;9.02;4.40;;;13.90;99.90;;;;;;5032446;28;20208;-85
2023/07/30 04:50:33;;;;;;;7.63;3.97;;;13.90;99.90;;;;;;5021746;28;20215;-84
2023/07/30 04:53:01;;;;;;;6.70;4.35;;;14.00;99.90;;;;;;5023949;28;20195;-84
2023/07/30 04:55:29;;;;;;;8.20;4.18;;;14.00;99.90;;;;;;5024886;28;20672;-84
2023/07/30 04:57:58;;;;;;;7.93;4.43;;;14.10;99.90;;;;;;5035721;28;20302;-84
2023/07/30 05:00:26;;;;;;;7.13;4.30;;;14.20;99.90;;;;;;5030830;28;20308;-84
2023/07/30 05:02:54;;;;;;;11.73;4.70;;;14.20;99.90;;;;;;5026207;28;20383;-86
2023/07/30 05:05:22;;;;;;;11.60;4.75;;;14.40;99.90;;;;;;5020459;28;20195;-84
2023/07/30 05:07:50;;;;;;;10.10;4.28;;;14.40;99.90;;;;;;5026099;28;20657;-84
2023/07/30 05:10:17;;;;;;;7.43;4.45;;;14.60;99.90;;;;;;5020695;28;20561;-84
2023/07/30 05:12:45;;;;;;;11.13;4.35;;;14.50;99.90;;;;;;4996365;28;20281;-85
2023/07/30 05:15:13;;;;;;;8.35;4.22;;;14.60;99.90;;;;;;5040692;28;20613;-84
2023/07/30 05:17:41;;;;;;;7.30;4.13;;;14.60;99.90;;;;;;5021839;28;20325;-84
2023/07/30 05:20:09;;;;;;;7.82;3.83;;;14.80;99.90;;;;;;5015261;28;20182;-84
2023/07/30 05:22:37;;;;;;;6.82;3.92;;;14.80;99.90;;;;;;5025972;28;20178;-84
2023/07/30 05:25:05;;;;;;;9.88;4.22;;;14.90;99.90;;;;;;5032761;28;20217;-84
2023/07/30 05:27:33;;;;;;;10.23;4.45;;;14.90;99.90;;;;;;5035689;28;20202;-86
2023/07/30 05:30:00;;;;;;;8.73;4.25;;;15.20;99.90;;;;;;5026002;28;20807;-86
2023/07/30 05:32:28;;;;;;;5.88;3.92;;;15.30;99.90;;;;;;5023716;28;20221;-85
2023/07/30 05:34:56;;;;;;;6.72;3.22;;;15.40;99.90;;;;;;5024185;28;20690;-86
2023/07/30 05:37:24;;;;;;;5.95;3.47;;;15.40;99.90;;;;;;5028210;28;20586;-85
2023/07/30 05:39:51;;;;;;;6.32;3.35;;;15.50;99.90;;;;;;5025259;28;20277;-85
2023/07/30 05:42:19;;;;;;;6.07;3.20;;;15.40;99.90;;;;;;5023509;28;20205;-85
2023/07/30 05:44:47;;;;;;;6.32;2.95;;;15.40;99.90;;;;;;5023796;28;20656;-85
2023/07/30 05:47:14;;;;;;;7.00;3.00;;;15.50;99.90;;;;;;5018003;28;20194;-85
2023/07/30 05:49:42;;;;;;;6.40;3.30;;;15.50;99.90;;;;;;5013241;28;20190;-85
2023/07/30 05:52:10;;;;;;;4.55;2.83;;;15.60;99.90;;;;;;5023042;28;20186;-85
2023/07/30 05:54:38;;;;;;;5.78;3.20;;;15.70;99.90;;;;;;5015070;28;20177;-85
2023/07/30 05:57:05;;;;;;;5.65;2.45;;;15.70;99.90;;;;;;5025321;28;20194;-85
2023/07/30 05:59:33;;;;;;;4.40;2.85;;;15.80;99.90;;;;;;5029109;28;20208;-85
2023/07/30 06:02:04;;;;;;;5.05;2.53;;;15.90;99.90;;;;;;5028953;28;20207;-85
2023/07/30 06:04:32;;;;;;;5.00;3.17;;;16.10;99.90;;;;;;5028904;28;20185;-84
2023/07/30 06:07:02;;;;;;;7.78;3.00;;;16.30;99.90;;;;;;5024717;28;20205;-85
2023/07/30 06:09:30;;;;;;;5.18;3.05;;;16.40;99.90;;;;;;5028862;28;20574;-84
2023/07/30 06:11:58;;;;;;;6.25;2.78;;;16.50;99.90;;;;;;5027556;28;20202;-84
2023/07/30 06:14:27;;;;;;;4.30;2.03;;;16.50;99.90;;;;;;5029293;28;20229;-85
2023/07/30 06:16:54;;;;;;;4.95;2.58;;;16.50;99.90;;;;;;5037912;28;20285;-85
2023/07/30 06:19:23;;;;;;;8.57;2.83;;;16.60;99.90;;;;;;5010959;28;20646;-85
2023/07/30 06:21:51;;;;;;;6.82;2.60;;;16.50;99.90;;;;;;5024535;28;20186;-83
2023/07/30 06:24:18;;;;;;;5.20;2.22;;;16.40;99.90;;;;;;5023461;28;20269;-83
2023/07/30 06:26:46;;;;;;;6.80;2.30;;;16.40;99.90;;;;;;5023252;28;20231;-85
2023/07/30 06:29:15;;;;;;;4.18;2.22;;;16.80;99.90;;;;;;5041256;28;20574;-85
2023/07/30 06:31:42;;;;;;;4.97;2.35;;;16.80;99.90;;;;;;5022595;27;20196;-86
2023/07/30 06:34:11;;;;;;;5.07;2.20;;;16.80;99.90;;;;;;5022698;28;20190;-85
2023/07/30 06:36:39;;;;;;;5.65;2.17;;;16.80;99.90;;;;;;5032896;28;20190;-85
2023/07/30 06:39:07;;;;;;;5.70;2.78;;;16.70;99.90;;;;;;5021433;28;20287;-86
2023/07/30 06:41:34;;;;;;;4.28;2.40;;;16.90;99.90;;;;;;5035806;28;20741;-85
2023/07/30 06:44:04;;;;;;;4.55;2.40;;;16.90;99.90;;;;;;5025938;28;20213;-85
2023/07/30 06:46:31;;;;;;;5.25;2.47;;;16.90;99.90;;;;;;5020718;28;20275;-86
2023/07/30 06:48:59;;;;;;;5.43;2.40;;;17.00;99.90;;;;;;5026736;28;20277;-85
2023/07/30 06:51:27;;;;;;;4.20;2.45;;;17.50;99.90;;;;;;5020911;28;20222;-83
2023/07/30 06:53:55;;;;;;;6.43;2.60;;;17.40;99.90;;;;;;5018726;28;20190;-86
2023/07/30 06:56:22;;;;;;;4.00;2.38;;;17.40;99.90;;;;;;5039863;28;20660;-86
2023/07/30 06:58:50;;;;;;;4.43;2.58;;;17.70;99.90;;;;;;5025858;28;20212;-85
2023/07/30 07:01:18;;;;;;;6.05;2.75;;;17.60;99.90;;;;;;5035592;27;20274;-86
2023/07/30 07:03:45;;;;;;;9.38;2.88;;;17.50;99.90;;;;;;5028233;28;20186;-85
2023/07/30 07:06:13;;;;;;;5.70;2.80;;;17.70;99.90;;;;;;5027636;28;20182;-86
2023/07/30 07:08:41;;;;;;;4.32;2.65;;;18.00;99.90;;;;;;5022196;28;20270;-85
2023/07/30 07:11:09;;;;;;;5.20;2.35;;;17.90;99.90;;;;;;5027079;28;20269;-85
2023/07/30 07:13:37;;;;;;;6.18;2.58;;;17.90;99.90;;;;;;5023837;28;20182;-82
2023/07/30 07:16:05;;;;;;;6.20;2.33;;;17.90;99.90;;;;;;5022719;27;20186;-83
2023/07/30 07:18:32;;;;;;;4.47;2.75;;;17.90;99.90;;;;;;5019061;28;20202;-83
2023/07/30 07:21:00;;;;;;;6.72;2.78;;;17.90;99.90;;;;;;5025390;28;20181;-83
2023/07/30 07:23:28;;;;;;;5.65;2.90;;;17.90;99.90;;;;;;5023370;28;20198;-82
2023/07/30 07:25:56;;;;;;;5.82;3.15;;;18.10;99.90;;;;;;5021120;28;20621;-82
2023/07/30 07:28:24;;;;;;;7.72;3.15;;;18.40;99.90;;;;;;5040487;28;20278;-82
2023/07/30 07:30:52;;;;;;;4.85;2.53;;;18.60;99.90;;;;;;5026277;28;20209;-82
2023/07/30 07:33:20;;;;;;;4.30;2.35;;;18.60;99.90;;;;;;5024919;28;20190;-82
2023/07/30 07:35:48;;;;;;;4.88;3.20;;;18.60;99.90;;;;;;5019730;28;20238;-83
2023/07/30 07:38:15;;;;;;;3.95;2.72;;;18.80;99.90;;;;;;5023478;28;20194;-83
2023/07/30 07:40:44;;;;;;;6.30;3.35;;;18.90;99.90;;;;;;5023368;28;20244;-82
2023/07/30 07:43:12;;;;;;;5.45;2.55;;;18.80;99.90;;;;;;5024341;28;20205;-82
2023/07/30 07:45:40;;;;;;;5.40;2.75;;;18.80;99.90;;;;;;5022326;27;20325;-82
2023/07/30 07:48:08;;;;;;;7.38;2.72;;;18.90;99.90;;;;;;5020172;28;20259;-83
2023/07/30 07:50:35;;;;;;;6.45;2.80;;;19.00;99.90;;;;;;5032666;28;20232;-82
2023/07/30 07:53:07;;;;;;;7.57;2.97;;;19.20;99.90;;;;;;5020322;28;20675;-83
2023/07/30 07:55:37;;;;;;;8.68;3.45;;;19.20;99.90;;;;;;5022190;28;20213;-80
2023/07/30 07:58:19;;;;;;;9.48;2.75;;;19.20;99.90;;;;;;5023849;28;20205;-83
2023/07/30 08:00:49;;;;;;;8.38;3.13;;;19.30;99.90;;;;;;5020886;28;20194;-82
2023/07/30 08:03:17;;;;;;;5.45;3.00;;;19.70;99.90;;;;;;5021043;28;20855;-82
2023/07/30 08:05:45;;;;;;;4.13;2.78;;;19.80;99.90;;;;;;5021999;28;20297;-83
2023/07/30 08:08:13;;;;;;;8.15;2.90;;;19.70;99.90;;;;;;5026433;28;20182;-84
2023/07/30 08:10:43;;;;;;;10.40;3.13;;;19.70;99.90;;;;;;5041997;28;20309;-82
2023/07/30 08:13:11;;;;;;;6.70;3.15;;;19.80;99.90;;;;;;5025742;28;20197;-84
2023/07/30 08:15:40;;;;;;;3.83;2.70;;;20.00;99.90;;;;;;5027327;28;20276;-82
2023/07/30 08:18:08;;;;;;;4.80;2.70;;;20.00;99.90;;;;;;5025270;28;20202;-81
2023/07/30 08:20:37;;;;;;;6.10;3.03;;;19.90;99.90;;;;;;5042476;28;20194;-81
2023/07/30 08:23:05;;;;;;;7.15;3.00;;;20.00;99.90;;;;;;5019626;28;20198;-82
2023/07/30 08:25:33;;;;;;;4.63;2.88;;;20.10;99.90;;;;;;5022987;28;20276;-81
2023/07/30 08:28:01;;;;;;;4.30;2.78;;;20.00;99.90;;;;;;5022635;28;20187;-81
2023/07/30 08:30:34;;;;;;;3.63;2.33;;;20.10;99.90;;;;;;5022415;28;20281;-81
2023/07/30 08:33:06;;;;;;;4.85;2.50;;;20.30;99.90;;;;;;5007572;28;20556;-81
2023/07/30 08:35:50;;;;;;;4.72;2.53;;;20.20;99.90;;;;;;5029510;28;20186;-81
2023/07/30 08:38:21;;;;;;;4.38;3.00;;;20.10;99.90;;;;;;5024632;28;20192;-82
2023/07/30 08:40:51;;;;;;;4.50;2.60;;;20.40;99.90;;;;;;5033237;28;20713;-81
2023/07/30 08:43:21;;;;;;;5.57;2.85;;;20.70;99.90;;;;;;5024709;28;20198;-81
2023/07/30 08:45:52;;;;;;;5.13;2.85;;;20.60;99.90;;;;;;5020361;28;20202;-82
2023/07/30 08:48:20;;;;;;;4.35;2.75;;;20.80;99.90;;;;;;5022883;28;20182;-82
2023/07/30 08:50:50;;;;;;;5.82;2.97;;;21.10;99.90;;;;;;5021323;28;20197;-81
2023/07/30 08:53:22;;;;;;;3.97;2.55;;;21.30;99.90;;;;;;5021865;27;20698;-81
2023/07/30 08:55:52;;;;;;;8.25;3.00;;;21.00;99.90;;;;;;5019317;28;20183;-81
2023/07/30 08:58:22;;;;;;;5.55;2.80;;;20.80;99.90;;;;;;5024211;28;20680;-82
2023/07/30 09:00:53;;;;;;;4.95;2.60;;;20.80;99.90;;;;;;5022269;28;20197;-82
2023/07/30 09:03:23;;;;;;;7.97;3.00;;;20.70;99.90;;;;;;5019585;28;20182;-81
2023/07/30 09:05:50;;;;;;;4.25;3.00;;;20.70;99.90;;;;;;5024554;28;20193;-82
2023/07/30 09:08:18;;;;;;;4.88;2.38;;;20.50;99.90;;;;;;5021115;28;20189;-82
2023/07/30 09:10:46;;;;;;;6.15;2.83;;;20.50;99.90;;;;;;5023881;28;20189;-81
2023/07/30 09:13:23;;;;;;;3.65;2.47;;;20.50;99.90;;;;;;5022088;28;20210;-81
2023/07/30 09:15:51;;;;;;;6.05;2.63;;;20.40;99.90;;;;;;5036905;28;20273;-81
2023/07/30 09:18:20;;;;;;;5.68;2.90;;;20.50;99.90;;;;;;5017441;28;20190;-82
2023/07/30 09:20:48;;;;;;;5.05;2.80;;;20.50;99.90;;;;;;5020108;28;20194;-81
2023/07/30 09:23:19;;;;;;;4.15;2.90;;;20.40;99.90;;;;;;5037237;28;20243;-81
2023/07/30 09:25:49;;;;;;;8.55;2.65;;;20.40;99.90;;;;;;5024242;28;20193;-81
2023/07/30 09:28:19;;;;;;;5.55;2.47;;;20.40;99.90;;;;;;5022765;28;20190;-80
2023/07/30 09:30:49;;;;;;;4.00;2.60;;;20.50;99.90;;;;;;5022518;28;20656;-81
2023/07/30 09:33:20;;;;;;;6.50;2.92;;;20.60;99.90;;;;;;5025222;28;20641;-80
2023/07/30 09:35:49;;;;;;;7.50;2.90;;;20.70;99.90;;;;;;5024040;28;20178;-81
2023/07/30 09:38:19;;;;;;;5.22;2.70;;;20.60;99.90;;;;;;5021583;28;20181;-81
2023/07/30 09:40:49;;;;;;;5.07;2.85;;;20.70;99.90;;;;;;5022605;27;20186;-82
2023/07/30 09:43:17;;;;;;;4.70;2.70;;;20.80;99.90;;;;;;5023190;28;20269;-82
2023/07/30 09:45:48;;;;;;;4.78;3.00;;;20.80;99.90;;;;;;5022569;28;20218;-81
2023/07/30 09:48:19;;;;;;;4.35;2.90;;;20.90;99.90;;;;;;5020665;28;20178;-81
2023/07/30 09:50:47;;;;;;;7.53;3.20;;;20.90;99.90;;;;;;5021977;28;20190;-81
2023/07/30 09:53:17;;;;;;;4.53;3.00;;;20.90;99.90;;;;;;5020584;28;20174;-81
2023/07/30 09:55:47;;;;;;;4.65;3.05;;;21.00;99.90;;;;;;5024514;28;20192;-82
2023/07/30 09:58:15;;;;;;;4.90;2.90;;;20.90;99.90;;;;;;5021662;28;20185;-81
2023/07/30 10:00:47;;;;;;;4.80;3.05;;;20.80;99.90;;;;;;5034358;28;20205;-82
2023/07/30 10:03:16;;;;;;;5.60;3.00;;;20.80;99.90;;;;;;5035826;28;20202;-82
2023/07/30 10:05:46;;;;;;;7.07;3.40;;;20.80;99.90;;;;;;5018896;28;20186;-81
2023/07/30 10:08:23;;;;;;;3.95;2.90;;;20.70;99.90;;;;;;5021709;28;20182;-82
2023/07/30 10:10:53;;;;;;;3.88;2.70;;;20.70;99.90;;;;;;5019443;28;20196;-82
2023/07/30 10:13:22;;;;;;;4.47;3.13;;;20.60;99.90;;;;;;5019211;28;20668;-82
2023/07/30 10:15:50;;;;;;;4.07;3.00;;;20.60;99.90;;;;;;5021719;28;20174;-82
2023/07/30 10:18:20;;;;;;;5.00;3.00;;;20.60;99.90;;;;;;5019223;28;20281;-82
2023/07/30 10:20:56;;;;;;;4.60;2.60;;;20.60;99.90;;;;;;5023738;28;20206;-82
2023/07/30 10:23:28;;;;;;;5.95;3.30;;;20.70;99.90;;;;;;5022446;28;20285;-82
2023/07/30 10:25:57;;;;;;;5.50;2.85;;;20.80;99.90;;;;;;5020552;28;20182;-82
2023/07/30 10:28:31;;;;;;;7.20;3.35;;;20.70;99.90;;;;;;5023742;28;20197;-82
2023/07/30 10:31:03;;;;;;;5.20;3.08;;;20.90;99.90;;;;;;5022077;28;20193;-82
2023/07/30 10:33:46;;;;;;;5.15;2.85;;;20.80;99.90;;;;;;5020255;28;20190;-82
2023/07/30 10:36:16;;;;;;;3.97;2.90;;;20.70;99.90;;;;;;5038116;28;20182;-82
2023/07/30 10:38:44;;;;;;;5.35;3.13;;;20.80;99.90;;;;;;5018909;28;20215;-82
2023/07/30 10:41:18;;;;;;;8.65;3.38;;;20.80;99.90;;;;;;5013997;28;20179;-82
2023/07/30 10:43:48;;;;;;;6.25;3.45;;;20.70;99.90;;;;;;5023258;28;20691;-82
2023/07/30 10:46:18;;;;;;;5.90;3.10;;;20.70;99.90;;;;;;5027044;28;20194;-82
2023/07/30 10:48:48;;;;;;;6.43;3.45;;;20.60;99.90;;;;;;5031663;28;20303;-82
2023/07/30 10:51:18;;;;;;;6.25;3.03;;;20.60;99.90;;;;;;5026861;28;20785;-82
2023/07/30 10:53:47;;;;;;;8.85;3.60;;;20.60;99.90;;;;;;5029064;28;20243;-82
2023/07/30 10:56:23;;;;;;;8.02;3.65;;;20.60;99.90;;;;;;5023345;28;20253;-82
2023/07/30 10:58:53;;;;;;;4.78;3.28;;;20.60;99.90;;;;;;5025161;28;20730;-82
2023/07/30 11:01:24;;;;;;;4.60;3.10;;;20.60;99.90;;;;;;5021763;28;20652;-86
2023/07/30 11:03:52;;;;;;;5.05;2.85;;;20.60;99.90;;;;;;5017165;28;20175;-85
2023/07/30 11:06:25;;;;;;;5.45;3.35;;;20.60;99.90;;;;;;5023083;28;20185;-86
2023/07/30 11:08:53;;;;;;;7.25;3.10;;;20.50;99.90;;;;;;5038114;28;20714;-86
2023/07/30 11:11:25;;;;;;;5.85;3.47;;;20.40;99.90;;;;;;5022334;28;20186;-86
2023/07/30 11:13:53;;;;;;;4.07;2.65;;;20.40;99.90;;;;;;5026077;28;20183;-84
2023/07/30 11:16:21;;;;;;;6.30;3.60;;;20.40;99.90;;;;;;5021479;28;20187;-85
2023/07/30 11:18:50;;;;;;;6.18;3.30;;;20.30;99.90;;;;;;5028940;28;20190;-83
2023/07/30 11:21:18;;;;;;;7.03;2.75;;;20.30;99.90;;;;;;5026526;28;20187;-83
2023/07/30 11:23:46;;;;;;;5.00;2.80;;;20.30;99.90;;;;;;5023400;27;20252;-83
2023/07/30 11:26:20;;;;;;;5.68;3.47;;;20.20;99.90;;;;;;5023310;28;20193;-84
2023/07/30 11:28:48;;;;;;;6.82;3.67;;;20.20;99.90;;;;;;5020272;28;20189;-83
2023/07/30 11:31:21;;;;;;;4.50;2.97;;;20.20;99.90;;;;;;5023518;28;20193;-83
2023/07/30 11:33:52;;;;;;;5.20;3.13;;;20.20;99.90;;;;;;5019490;28;20664;-83
2023/07/30 11:36:22;;;;;;;4.03;3.10;;;20.20;99.90;;;;;;5024617;28;20186;-84
2023/07/30 11:38:53;;;;;;;4.38;3.10;;;20.20;99.90;;;;;;5021664;28;20214;-82
2023/07/30 11:41:23;;;;;;;5.00;3.17;;;20.20;99.90;;;;;;5024302;28;20194;-84
2023/07/30 11:43:51;;;;;;;12.52;3.08;;;20.20;99.90;;;;;;5018791;28;20221;-83
2023/07/30 11:46:22;;;;;;;3.65;2.80;;;20.10;99.90;;;;;;5018343;28;20183;-83
2023/07/30 11:48:52;;;;;;;5.57;2.92;;;20.10;99.90;;;;;;5018945;28;20215;-82
2023/07/30 11:51:24;;;;;;;5.53;2.85;;;20.10;99.90;;;;;;5037366;28;20202;-83
2023/07/30 11:53:57;;;;;;;5.43;3.30;;;20.10;99.90;;;;;;5019417;28;20193;-84
2023/07/30 11:56:28;;;;;;;5.00;3.10;;;20.10;99.90;;;;;;5019692;28;20194;-83
2023/07/30 11:58:58;;;;;;;4.57;3.20;;;20.00;99.90;;;;;;5021678;28;20186;-81
2023/07/30 12:01:28;;;;;;;3.95;2.92;;;20.00;99.90;;;;;;5023347;28;20190;-81
2023/07/30 12:03:57;;;;;;;4.60;3.15;;;20.00;99.90;;;;;;5021497;28;20182;-81
2023/07/30 12:06:39;;;;;;;5.45;3.33;;;20.00;99.90;;;;;;5023880;28;20235;-81
2023/07/30 12:09:14;;;;;;;5.55;3.55;;;19.90;99.90;;;;;;5021128;28;20178;-81
2023/07/30 12:11:57;;;;;;;5.90;3.33;;;20.00;99.90;;;;;;5023082;28;20181;-82
2023/07/30 12:14:30;;;;;;;5.47;3.35;;;20.00;99.90;;;;;;5035143;28;20191;-81
2023/07/30 12:16:59;;;;;;;5.07;3.35;;;19.90;99.90;;;;;;5020549;28;20190;-81
2023/07/30 12:19:26;;;;;;;5.22;3.42;;;19.90;99.90;;;;;;5023964;28;20552;-81
2023/07/30 12:21:54;;;;;;;5.78;4.03;;;19.80;99.90;;;;;;5025099;28;20182;-81
2023/07/30 12:24:22;;;;;;;7.60;3.97;;;19.80;99.90;;;;;;5024928;28;20277;-81
2023/07/30 12:26:50;;;;;;;7.80;4.07;;;19.80;99.90;;;;;;5038878;27;20190;-81
2023/07/30 12:29:22;;;;;;;5.93;3.85;;;19.80;99.90;;;;;;5025041;28;20194;-82
2023/07/30 12:31:53;;;;;;;7.28;3.95;;;19.80;99.90;;;;;;5026468;28;20659;-84
2023/07/30 12:34:23;;;;;;;5.57;3.67;;;19.90;99.90;;;;;;5004519;28;20195;-83
2023/07/30 12:36:50;;;;;;;9.48;3.83;;;19.90;99.90;;;;;;5023588;28;20664;-83
2023/07/30 12:39:18;;;;;;;8.15;3.58;;;19.90;99.90;;;;;;5026035;28;20182;-83
2023/07/30 12:41:46;;;;;;;4.93;3.67;;;19.90;99.90;;;;;;5021266;28;20186;-83
2023/07/30 12:44:14;;;;;;;5.97;3.83;;;19.80;99.90;;;;;;5026181;28;20221;-82
2023/07/30 12:46:42;;;;;;;8.77;5.00;;;19.80;99.90;;;;;;5025266;28;20209;-82
2023/07/30 12:49:10;;;;;;;10.57;5.10;;;19.50;99.90;;;;;;5033957;28;20186;-82
2023/07/30 12:51:39;;;;;;;7.75;5.05;;;19.30;99.90;;;;;;5026362;28;20197;-81
2023/07/30 12:54:08;;;;;;;8.68;4.22;;;19.00;99.90;;;;;;5025061;28;20194;-81